Time;durP1;ratioP1;P1;durP2;ratioP2;P2;SDS_P1;SDS_P2;PMS_P1;PMS_P2;Temp;Humidity;BMP_temperature;BMP_pressure;BME280_temperature;BME280_humidity;BME280_pressure;Samples;Min_cycle;Max_cycle;Signal;HPM_P1;HPM_P2
2022/03/14 00:01:31;;;;;;;0.00;0.00;;;;;;;3.17;51.18;100370.53;4895047;29;20469;-80
2022/03/14 00:03:58;;;;;;;0.00;0.00;;;;;;;3.15;51.03;100367.25;4863507;29;20111;-80
2022/03/14 00:06:28;;;;;;;9.23;1.08;;;;;;;3.15;51.17;100377.81;4870424;29;20037;-80
2022/03/14 00:08:55;;;;;;;0.00;0.00;;;;;;;3.13;51.49;100367.44;4880104;29;20036;-80
2022/03/14 00:11:22;;;;;;;0.00;0.00;;;;;;;3.13;51.41;100375.38;4865174;29;20037;-79
2022/03/14 00:13:48;;;;;;;0.00;0.00;;;;;;;3.12;51.40;100376.38;4866646;29;20041;-79
2022/03/14 00:16:22;;;;;;;0.55;0.55;;;;;;;3.14;50.95;100382.31;4882240;29;20064;-79
2022/03/14 00:18:50;;;;;;;0.00;0.00;;;;;;;3.13;51.83;100371.94;4881672;29;20041;-77
2022/03/14 00:21:16;;;;;;;0.00;0.00;;;;;;;3.11;51.67;100382.69;4882322;29;20597;-79
2022/03/14 00:23:43;;;;;;;0.00;0.00;;;;;;;3.11;51.21;100385.31;4871051;29;20128;-80
2022/03/14 00:26:13;;;;;;;0.00;0.00;;;;;;;3.13;51.19;100390.44;4876572;29;20044;-80
2022/03/14 00:28:39;;;;;;;0.00;0.00;;;;;;;3.11;51.40;100384.50;4890365;29;20047;-80
2022/03/14 00:31:04;;;;;;;0.00;0.00;;;;;;;3.07;51.00;100389.38;4882157;29;20028;-79
2022/03/14 00:33:29;;;;;;;0.20;0.20;;;;;;;3.08;51.18;100396.28;4900817;29;20036;-76
2022/03/14 00:35:56;;;;;;;0.00;0.00;;;;;;;3.07;51.03;100405.22;4900756;29;20037;-75
2022/03/14 00:38:24;;;;;;;0.00;0.00;;;;;;;3.09;50.86;100397.94;4900562;29;20035;-77
2022/03/14 00:40:51;;;;;;;0.00;0.00;;;;;;;3.05;51.54;100394.03;4882969;29;20041;-77
2022/03/14 00:43:16;;;;;;;0.00;0.00;;;;;;;3.07;52.11;100394.66;4883044;29;20572;-78
2022/03/14 00:45:42;;;;;;;0.00;0.00;;;;;;;3.03;52.58;100394.22;4893167;29;20063;-78
2022/03/14 00:48:08;;;;;;;0.00;0.00;;;;;;;3.05;52.76;100399.31;4901225;29;20032;-78
2022/03/14 00:50:34;;;;;;;0.00;0.00;;;;;;;3.03;52.63;100399.50;4901608;29;20036;-77
2022/03/14 00:53:04;;;;;;;0.00;0.00;;;;;;;3.05;52.53;100407.25;4918842;29;20038;-79
2022/03/14 00:55:30;;;;;;;0.00;0.00;;;;;;;3.06;52.41;100410.72;4911099;29;20060;-77
2022/03/14 00:58:30;;;;;;;0.00;0.00;;;;;;;3.07;52.61;100405.22;4902062;29;20047;-82
2022/03/14 01:00:56;;;;;;;0.00;0.00;;;;;;;3.07;52.54;100407.88;4890147;29;20516;-80
2022/03/14 01:03:21;;;;;;;0.00;0.00;;;;;;;3.06;52.84;100403.59;4882417;29;20084;-81
2022/03/14 01:09:38;;;;;;;0.00;0.00;;;;;;;3.07;52.33;100405.22;4826135;29;20138;-82
2022/03/14 01:12:25;;;;;;;0.00;0.00;;;;;;;3.02;53.21;100408.44;4804315;29;20125;-81
2022/03/14 01:14:51;;;;;;;0.00;0.00;;;;;;;3.02;53.08;100407.63;4882165;29;20036;-79
2022/03/14 01:17:16;;;;;;;0.00;0.00;;;;;;;3.00;52.91;100413.13;4899163;29;20037;-79
2022/03/14 01:19:42;;;;;;;0.00;0.00;;;;;;;2.99;53.14;100413.28;4891815;29;20035;-80
2022/03/14 01:22:10;;;;;;;0.00;0.00;;;;;;;2.98;52.98;100415.13;4882132;29;20032;-79
2022/03/14 01:24:39;;;;;;;0.30;0.30;;;;;;;2.86;53.21;100411.38;4899647;29;20024;-79
2022/03/14 01:27:07;;;;;;;0.00;0.00;;;;;;;2.83;53.26;100409.94;4908618;29;20043;-79
2022/03/14 01:29:34;;;;;;;0.00;0.00;;;;;;;2.76;53.50;100411.72;4897227;29;20036;-79
2022/03/14 01:32:04;;;;;;;0.52;0.52;;;;;;;2.77;52.82;100416.00;4882684;29;20040;-79
2022/03/14 01:34:29;;;;;;;0.00;0.00;;;;;;;2.74;52.52;100424.28;4889300;29;20032;-80
2022/03/14 01:36:55;;;;;;;0.00;0.00;;;;;;;2.69;52.97;100416.94;4882959;29;20527;-81
2022/03/14 01:39:21;;;;;;;0.00;0.00;;;;;;;2.70;53.07;100421.22;4882166;29;20588;-80
2022/03/14 01:41:47;;;;;;;0.00;0.00;;;;;;;2.72;53.06;100421.84;4883241;29;20040;-80
2022/03/14 01:44:13;;;;;;;0.00;0.00;;;;;;;2.73;52.71;100420.00;4882907;29;20063;-79
2022/03/14 01:46:38;;;;;;;0.00;0.00;;;;;;;2.72;52.72;100421.84;4882101;29;20413;-81
2022/03/14 01:56:27;;;;;;;0.10;0.10;;;;;;;2.70;52.51;100425.69;4838067;29;20057;-81
2022/03/14 01:58:53;;;;;;;0.00;0.00;;;;;;;2.69;52.81;100431.97;4808697;29;20046;-79
2022/03/14 02:01:20;;;;;;;0.00;0.00;;;;;;;2.69;52.75;100430.13;4814587;29;20428;-79
2022/03/14 02:03:50;;;;;;;0.00;0.00;;;;;;;2.71;51.94;100435.22;4868434;29;20497;-79
2022/03/14 02:06:15;;;;;;;0.00;0.00;;;;;;;2.67;52.32;100421.59;4883437;29;20032;-80
2022/03/14 02:08:41;;;;;;;0.00;0.00;;;;;;;2.76;53.19;100437.31;4916239;29;20055;-80
2022/03/14 02:11:06;;;;;;;0.00;0.00;;;;;;;2.64;53.36;100437.00;4899725;29;20129;-79
2022/03/14 02:13:32;;;;;;;0.00;0.00;;;;;;;2.66;53.66;100448.19;4884616;29;20036;-79
2022/03/14 02:15:57;;;;;;;0.00;0.00;;;;;;;2.67;53.41;100449.81;4900478;29;20036;-80
2022/03/14 02:18:42;;;;;;;0.00;0.00;;;;;;;2.67;53.11;100450.66;4896124;29;20037;-80
2022/03/14 02:21:12;;;;;;;0.00;0.00;;;;;;;2.69;52.78;100456.56;4880866;29;20527;-79
2022/03/14 02:23:38;;;;;;;0.00;0.00;;;;;;;2.68;53.17;100456.75;4894255;29;20036;-81
2022/03/14 02:26:03;;;;;;;0.00;0.00;;;;;;;2.72;53.21;100463.28;4899113;29;20036;-80
2022/03/14 02:31:55;;;;;;;0.00;0.00;;;;;;;2.78;52.94;100469.63;4925201;29;20043;-80
2022/03/14 02:34:59;;;;;;;0.00;0.00;;;;;;;2.78;52.31;100475.72;4903057;29;20035;-79
2022/03/14 02:41:45;;;;;;;0.00;0.00;;;;;;;2.74;51.96;100474.47;4910331;29;20072;-81
2022/03/14 03:00:52;;;;;;;0.00;0.00;;;;;;;2.71;52.54;100490.69;4893398;29;20039;-78
2022/03/14 03:03:18;;;;;;;0.00;0.00;;;;;;;2.71;52.82;100488.88;4899857;29;20037;-77
2022/03/14 03:05:44;;;;;;;0.00;0.00;;;;;;;2.69;52.87;100490.09;4882190;29;20473;-78
2022/03/14 03:08:10;;;;;;;0.00;0.00;;;;;;;2.64;53.44;100495.94;4880416;29;20485;-79
2022/03/14 03:10:44;;;;;;;0.00;0.00;;;;;;;2.67;53.55;100502.66;4883565;29;20504;-79
2022/03/14 03:13:37;;;;;;;0.00;0.00;;;;;;;2.67;52.91;100503.50;4901426;29;20465;-79
2022/03/14 03:16:05;;;;;;;0.17;0.17;;;;;;;2.68;53.13;100501.66;4900090;29;20127;-78
2022/03/14 03:18:31;;;;;;;0.00;0.00;;;;;;;2.69;53.72;100513.84;4884928;29;20033;-79
2022/03/14 03:20:56;;;;;;;0.00;0.00;;;;;;;2.69;53.78;100508.56;4883479;29;20021;-78
2022/03/14 03:23:22;;;;;;;0.00;0.00;;;;;;;2.70;53.48;100511.03;4884660;29;20016;-79
2022/03/14 03:25:52;;;;;;;0.15;0.15;;;;;;;2.70;53.46;100515.50;4883720;29;20032;-79
2022/03/14 03:28:18;;;;;;;0.00;0.00;;;;;;;2.70;54.27;100510.22;4883602;29;20032;-79
2022/03/14 03:31:48;;;;;;;0.00;0.00;;;;;;;2.70;53.76;100524.22;4869328;29;20071;-80
2022/03/14 03:35:16;;;;;;;0.10;0.10;;;;;;;2.67;53.69;100526.44;4876527;29;20436;-80
2022/03/14 03:38:02;;;;;;;0.00;0.00;;;;;;;2.64;53.45;100524.97;4848560;29;20521;-79
2022/03/14 03:40:27;;;;;;;0.00;0.00;;;;;;;2.51;52.65;100533.56;4865189;29;20025;-77
2022/03/14 03:42:53;;;;;;;1.20;1.20;;;;;;;2.45;53.37;100536.94;4882551;29;20040;-78
2022/03/14 03:45:18;;;;;;;0.00;0.00;;;;;;;2.41;54.09;100533.06;4882864;29;20630;-78
2022/03/14 03:47:44;;;;;;;0.00;0.00;;;;;;;2.43;53.90;100543.41;4899021;29;20021;-78
2022/03/14 03:50:10;;;;;;;0.00;0.00;;;;;;;2.44;53.76;100550.34;4882600;29;20568;-77
2022/03/14 03:52:36;;;;;;;0.00;0.00;;;;;;;2.45;54.51;100549.34;4882691;29;20450;-78
2022/03/14 03:55:02;;;;;;;0.00;0.00;;;;;;;2.40;53.59;100549.91;4882187;29;20037;-78
2022/03/14 03:57:27;;;;;;;0.10;0.10;;;;;;;2.44;54.89;100553.00;4900044;29;20041;-78
2022/03/14 04:03:21;;;;;;;0.00;0.00;;;;;;;2.45;53.57;100550.16;4898490;29;20518;-79
2022/03/14 04:05:48;;;;;;;0.05;0.05;;;;;;;2.43;52.87;100559.25;4881733;29;20024;-79
2022/03/14 04:08:14;;;;;;;0.20;0.20;;;;;;;2.42;53.05;100560.25;4898797;29;20028;-80
2022/03/14 04:10:41;;;;;;;0.00;0.00;;;;;;;2.44;53.11;100559.09;4896452;29;20501;-79
2022/03/14 04:13:07;;;;;;;0.00;0.00;;;;;;;2.41;52.76;100564.75;4881592;29;20052;-79
2022/03/14 04:16:09;;;;;;;0.00;0.00;;;;;;;2.39;52.90;100572.84;4897875;29;20469;-79
2022/03/14 04:18:28;;;;;;;0.00;0.00;;;;;;;2.42;52.45;100576.09;4896814;29;20128;-79
2022/03/14 04:20:59;;;;;;;0.32;0.32;;;;;;;2.41;52.23;100575.31;4898390;29;20040;-82
2022/03/14 04:23:25;;;;;;;0.57;0.57;;;;;;;2.39;51.97;100577.31;4898585;29;20024;-81
2022/03/14 04:25:51;;;;;;;0.00;0.00;;;;;;;2.39;52.55;100572.84;4882210;29;20039;-79
2022/03/14 04:28:16;;;;;;;0.00;0.00;;;;;;;2.39;52.34;100575.50;4881917;29;20032;-79
2022/03/14 04:31:08;;;;;;;0.00;0.00;;;;;;;2.39;51.88;100585.22;4881723;29;20040;-81
2022/03/14 04:33:33;;;;;;;0.00;0.00;;;;;;;2.35;51.83;100581.31;4869293;29;20561;-80
2022/03/14 04:35:59;;;;;;;0.10;0.10;;;;;;;2.36;51.88;100582.97;4896819;29;20035;-78
2022/03/14 04:38:25;;;;;;;0.00;0.00;;;;;;;2.40;51.98;100589.50;4882224;29;20036;-79
2022/03/14 04:40:53;;;;;;;0.00;0.00;;;;;;;2.38;51.69;100596.78;4882110;29;20052;-80
2022/03/14 04:43:20;;;;;;;0.20;0.20;;;;;;;2.39;51.95;100593.13;4880066;29;20043;-80
2022/03/14 04:45:46;;;;;;;0.10;0.10;;;;;;;2.38;51.82;100600.25;4897340;29;20029;-80
2022/03/14 04:48:12;;;;;;;0.00;0.00;;;;;;;2.39;51.69;100604.53;4897057;29;20032;-80
2022/03/14 04:50:37;;;;;;;0.25;0.25;;;;;;;2.40;51.33;100608.00;4896715;29;20532;-78
2022/03/14 04:53:04;;;;;;;1.55;0.70;;;;;;;2.42;51.52;100602.50;4898477;29;20115;-78
2022/03/14 04:55:29;;;;;;;0.00;0.00;;;;;;;2.43;51.69;100605.00;4889411;29;20508;-80
2022/03/14 04:57:55;;;;;;;0.00;0.00;;;;;;;2.45;51.76;100610.09;4881437;29;20040;-80
2022/03/14 05:03:44;;;;;;;0.20;0.20;;;;;;;2.61;51.64;100627.56;4902467;29;20092;-81
2022/03/14 05:06:13;;;;;;;0.00;0.00;;;;;;;2.60;50.92;100615.34;4951651;23;20032;-83
2022/03/14 05:11:56;;;;;;;0.00;0.00;;;;;;;2.79;50.56;100632.44;5047794;23;20173;-82
2022/03/14 05:14:58;;;;;;;0.00;0.00;;;;;;;2.85;50.80;100643.06;5410023;23;20051;31
2022/03/14 05:17:25;;;;;;;0.32;0.32;;;;;;;2.87;51.15;100640.28;4857944;29;20063;-80
2022/03/14 05:19:51;;;;;;;0.00;0.00;;;;;;;2.96;51.43;100647.06;4844098;29;20145;-77
2022/03/14 05:22:18;;;;;;;0.00;0.00;;;;;;;3.02;51.78;100650.81;4845743;29;20029;-80
2022/03/14 05:24:44;;;;;;;0.00;0.00;;;;;;;3.08;51.77;100654.53;4847059;29;20040;-80
2022/03/14 05:27:10;;;;;;;0.00;0.00;;;;;;;3.13;51.26;100660.06;4868558;29;20085;-79
2022/03/14 05:30:03;;;;;;;0.03;0.03;;;;;;;3.17;50.43;100658.69;4843117;29;22007;-79
2022/03/14 05:32:29;;;;;;;0.10;0.10;;;;;;;3.26;49.97;100667.31;4859081;29;20093;-76
2022/03/14 05:34:55;;;;;;;0.00;0.00;;;;;;;3.30;49.94;100668.59;4862793;29;20021;-81
2022/03/14 05:37:22;;;;;;;0.00;0.00;;;;;;;3.33;49.06;100666.38;4860304;29;20056;-76
2022/03/14 05:39:48;;;;;;;0.00;0.00;;;;;;;3.38;49.01;100675.56;4859923;29;20033;-77
2022/03/14 05:42:14;;;;;;;0.17;0.17;;;;;;;3.41;48.89;100677.84;4842831;29;20120;-77
2022/03/14 05:44:39;;;;;;;0.00;0.00;;;;;;;3.48;48.66;100678.75;4859589;29;20466;-77
2022/03/14 05:47:05;;;;;;;1.02;1.02;;;;;;;3.44;48.60;100665.06;4859383;29;20026;-77
2022/03/14 05:49:30;;;;;;;0.00;0.00;;;;;;;3.72;47.44;100674.88;4860312;29;20094;-76
2022/03/14 05:51:56;;;;;;;0.00;0.00;;;;;;;3.74;49.41;100686.09;4843346;29;20044;-77
2022/03/14 05:54:23;;;;;;;0.00;0.00;;;;;;;3.55;50.50;100671.66;4859392;29;20025;-77
2022/03/14 05:56:48;;;;;;;0.20;0.20;;;;;;;3.45;51.61;100681.75;4860058;29;20484;-77
2022/03/14 05:59:14;;;;;;;0.00;0.00;;;;;;;3.47;51.50;100687.69;4859083;29;20109;-77
2022/03/14 06:01:40;;;;;;;0.10;0.10;;;;;;;3.49;51.04;100691.78;4843179;29;20037;-77
2022/03/14 06:04:06;;;;;;;0.00;0.00;;;;;;;3.43;51.23;100687.25;4859976;29;20401;-77
2022/03/14 06:06:31;;;;;;;0.45;0.45;;;;;;;3.45;52.33;100687.03;4859559;29;20073;-76
2022/03/14 06:08:57;;;;;;;0.10;0.10;;;;;;;3.47;52.47;100692.97;4859600;29;20110;-77
2022/03/14 06:11:23;;;;;;;0.00;0.00;;;;;;;3.44;52.74;100696.81;4859209;29;20047;-77
2022/03/14 06:13:49;;;;;;;0.00;0.00;;;;;;;3.54;52.36;100696.50;4859514;29;20025;-76
2022/03/14 06:16:14;;;;;;;0.00;0.00;;;;;;;3.57;51.58;100696.09;4859097;29;20069;-77
2022/03/14 06:18:39;;;;;;;0.00;0.00;;;;;;;3.62;51.32;100700.84;4858360;29;20507;-77
2022/03/14 06:21:05;;;;;;;0.00;0.00;;;;;;;3.69;51.28;100709.66;4842861;29;20033;-77
2022/03/14 06:23:30;;;;;;;0.05;0.05;;;;;;;3.76;51.36;100715.84;4842902;29;20120;-76
2022/03/14 06:25:56;;;;;;;0.55;0.55;;;;;;;3.80;50.80;100716.28;4859231;29;20093;-76
2022/03/14 06:28:22;;;;;;;0.20;0.20;;;;;;;3.93;50.82;100710.28;4858888;29;20052;-76
2022/03/14 06:30:48;;;;;;;0.00;0.00;;;;;;;4.08;50.64;100712.84;4859489;29;20036;-76
2022/03/14 06:33:13;;;;;;;0.00;0.00;;;;;;;4.29;50.65;100718.09;4859177;29;20077;-76
2022/03/14 06:35:40;;;;;;;0.10;0.10;;;;;;;4.37;48.51;100722.44;4842723;29;20033;-77
2022/03/14 06:38:06;;;;;;;0.08;0.08;;;;;;;4.50;48.00;100716.38;4859126;29;20029;-77
2022/03/14 06:40:32;;;;;;;0.82;0.82;;;;;;;4.75;46.73;100727.34;4859613;29;20038;-77
2022/03/14 06:42:58;;;;;;;2.05;1.55;;;;;;;4.89;46.25;100720.25;4859581;29;20045;-79
2022/03/14 06:45:25;;;;;;;0.10;0.10;;;;;;;5.13;45.11;100734.06;4858955;29;20101;-78
2022/03/14 06:47:54;;;;;;;0.05;0.05;;;;;;;5.20;45.39;100726.94;4859279;29;20482;-78
2022/03/14 06:50:21;;;;;;;0.20;0.20;;;;;;;5.38;44.12;100728.22;4857493;29;20033;-78
2022/03/14 06:52:47;;;;;;;0.65;0.65;;;;;;;5.43;42.33;100731.91;4858846;29;20069;-77
2022/03/14 06:55:13;;;;;;;0.00;0.00;;;;;;;5.52;42.27;100732.53;4842294;29;20425;-77
2022/03/14 06:57:39;;;;;;;0.00;0.00;;;;;;;5.61;42.67;100741.13;4859151;29;20061;-77
2022/03/14 07:00:06;;;;;;;0.00;0.00;;;;;;;5.68;42.46;100741.16;4859013;29;20586;-77
2022/03/14 07:02:31;;;;;;;0.47;0.47;;;;;;;5.81;43.65;100756.28;4842407;29;20027;-77
2022/03/14 07:04:57;;;;;;;0.65;0.65;;;;;;;5.92;41.10;100751.19;4858829;29;20463;-77
2022/03/14 07:07:23;;;;;;;0.22;0.22;;;;;;;6.01;40.76;100749.16;4842129;29;20110;-77
2022/03/14 07:09:48;;;;;;;2.20;0.73;;;;;;;6.01;41.31;100756.34;4857609;29;20037;-76
2022/03/14 07:12:15;;;;;;;0.30;0.30;;;;;;;6.11;42.17;100758.59;4858375;29;20136;-77
2022/03/14 07:14:40;;;;;;;0.35;0.32;;;;;;;6.13;40.37;100762.66;4858707;29;20061;-77
2022/03/14 07:17:06;;;;;;;4.07;1.88;;;;;;;6.16;40.77;100762.25;4858729;29;20509;-77
2022/03/14 07:19:32;;;;;;;1.80;1.35;;;;;;;6.22;41.75;100760.63;4859348;29;20120;-77
2022/03/14 07:21:57;;;;;;;0.30;0.30;;;;;;;6.29;41.21;100761.44;4858766;29;20036;-77
2022/03/14 07:24:23;;;;;;;0.00;0.00;;;;;;;6.29;41.02;100766.75;4857415;29;20401;-77
2022/03/14 07:26:49;;;;;;;0.10;0.10;;;;;;;6.28;41.12;100764.31;4858811;29;20491;-77
2022/03/14 07:29:15;;;;;;;0.00;0.00;;;;;;;6.31;41.81;100769.19;4858656;29;20030;-77
2022/03/14 07:31:41;;;;;;;0.00;0.00;;;;;;;6.41;42.36;100772.28;4858670;29;20049;-77
2022/03/14 07:34:07;;;;;;;0.10;0.10;;;;;;;6.55;43.32;100765.09;4858523;29;20482;-76
2022/03/14 07:36:36;;;;;;;0.00;0.00;;;;;;;6.62;42.21;100767.75;4858304;29;20414;-78
2022/03/14 07:39:03;;;;;;;0.00;0.00;;;;;;;6.56;40.70;100780.03;4860379;29;20068;-77
2022/03/14 07:41:29;;;;;;;0.98;0.55;;;;;;;6.50;41.02;100783.50;4845646;29;20025;-79
2022/03/14 07:43:54;;;;;;;0.00;0.00;;;;;;;6.43;41.76;100786.16;4845584;29;20180;-78
2022/03/14 07:46:21;;;;;;;0.63;0.52;;;;;;;6.40;41.75;100789.25;4845288;29;20029;-78
2022/03/14 07:48:46;;;;;;;0.00;0.00;;;;;;;6.46;43.21;100785.75;4845421;29;20034;-78
2022/03/14 07:51:12;;;;;;;0.52;0.52;;;;;;;6.51;42.72;100788.63;4861390;29;20036;-78
2022/03/14 07:53:37;;;;;;;0.00;0.00;;;;;;;6.55;42.03;100786.34;4861807;29;20025;-78
2022/03/14 07:56:03;;;;;;;0.00;0.00;;;;;;;6.52;41.67;100792.09;4861854;29;20044;-77
2022/03/14 07:58:29;;;;;;;7.53;1.13;;;;;;;6.57;42.04;100795.75;4861549;29;20427;-78
2022/03/14 08:00:54;;;;;;;0.20;0.20;;;;;;;6.58;41.27;100799.25;4861465;29;20043;-77
2022/03/14 08:03:21;;;;;;;0.00;0.00;;;;;;;6.62;42.70;100787.19;4861175;29;20040;-77
2022/03/14 08:05:48;;;;;;;3.17;1.17;;;;;;;6.67;41.69;100789.22;4861551;29;20062;-78
2022/03/14 08:08:17;;;;;;;1.75;0.75;;;;;;;6.71;41.94;100785.09;4844767;29;20026;-78
2022/03/14 08:10:42;;;;;;;2.30;2.20;;;;;;;6.78;41.59;100782.44;4845047;29;20505;-78
2022/03/14 08:13:08;;;;;;;0.00;0.00;;;;;;;6.84;42.66;100786.94;4861220;29;20036;-78
2022/03/14 08:15:37;;;;;;;0.00;0.00;;;;;;;6.97;42.14;100792.22;4861149;29;20480;-78
2022/03/14 08:18:05;;;;;;;0.10;0.10;;;;;;;6.94;40.91;100797.16;4844994;29;20479;-78
2022/03/14 08:20:32;;;;;;;0.10;0.10;;;;;;;6.92;41.38;100800.03;4860256;29;20615;-78
2022/03/14 08:22:59;;;;;;;0.52;0.52;;;;;;;6.86;39.71;100793.69;4844679;29;20042;-78
2022/03/14 08:25:26;;;;;;;0.00;0.00;;;;;;;6.85;41.64;100794.69;4861496;29;20041;-77
2022/03/14 08:27:52;;;;;;;0.10;0.10;;;;;;;6.96;42.35;100805.75;4861529;29;20036;-78
2022/03/14 08:30:22;;;;;;;0.00;0.00;;;;;;;7.02;41.15;100795.06;4843958;29;20033;-78
2022/03/14 08:32:50;;;;;;;0.15;0.15;;;;;;;7.05;41.54;100801.81;4844592;29;20124;-78
2022/03/14 08:35:19;;;;;;;0.10;0.10;;;;;;;7.04;40.65;100798.34;4844306;29;20056;-78
2022/03/14 08:37:46;;;;;;;0.00;0.00;;;;;;;6.94;41.06;100800.59;4861140;29;20164;-79
2022/03/14 08:40:13;;;;;;;0.93;0.93;;;;;;;6.90;41.74;100796.75;4844253;29;20033;-78
2022/03/14 08:42:41;;;;;;;0.13;0.13;;;;;;;6.96;40.56;100797.75;4860951;29;20110;-78
2022/03/14 08:45:08;;;;;;;0.22;0.22;;;;;;;6.99;41.88;100795.47;4844329;29;20022;-78
2022/03/14 08:47:34;;;;;;;0.00;0.00;;;;;;;6.95;40.70;100796.94;4859755;29;20133;-78
2022/03/14 08:50:02;;;;;;;0.17;0.17;;;;;;;7.15;40.19;100786.25;4858572;29;20026;-78
2022/03/14 08:52:28;;;;;;;0.03;0.03;;;;;;;7.33;40.73;100790.06;4860593;29;20128;-78
2022/03/14 08:54:54;;;;;;;0.00;0.00;;;;;;;7.43;39.43;100789.59;4860856;29;20025;-78
2022/03/14 08:57:20;;;;;;;0.00;0.00;;;;;;;7.51;39.44;100790.16;4860708;29;20029;-78
2022/03/14 08:59:45;;;;;;;0.00;0.00;;;;;;;7.61;39.37;100792.38;4860634;29;20044;-77
2022/03/14 09:02:11;;;;;;;0.30;0.30;;;;;;;7.71;39.54;100780.44;4843955;29;20485;-76
2022/03/14 09:04:37;;;;;;;0.00;0.00;;;;;;;7.89;39.17;100791.19;4860427;29;20378;-76
2022/03/14 09:07:02;;;;;;;0.08;0.08;;;;;;;7.89;38.74;100780.53;4860724;29;20033;-76
2022/03/14 09:09:28;;;;;;;0.65;0.65;;;;;;;7.82;39.19;100785.09;4859942;29;20048;-76
2022/03/14 09:11:54;;;;;;;0.50;0.50;;;;;;;7.80;39.21;100790.63;4860168;29;20038;-78
2022/03/14 09:14:19;;;;;;;0.50;0.50;;;;;;;7.85;38.83;100798.78;4860244;29;20030;-79
2022/03/14 09:16:46;;;;;;;0.00;0.00;;;;;;;7.82;38.31;100804.56;4858877;29;20108;-78
2022/03/14 09:19:12;;;;;;;1.40;0.98;;;;;;;7.84;38.64;100804.34;4843528;29;20025;-77
2022/03/14 09:21:38;;;;;;;0.43;0.43;;;;;;;7.82;37.55;100801.06;4843795;29;20037;-78
2022/03/14 09:24:04;;;;;;;0.30;0.30;;;;;;;7.73;38.32;100797.84;4860378;29;20486;-77
2022/03/14 09:26:31;;;;;;;0.57;0.57;;;;;;;7.59;38.50;100799.78;4859657;29;20065;-78
2022/03/14 09:28:57;;;;;;;0.00;0.00;;;;;;;7.49;39.61;100800.19;4860150;29;20034;-78
2022/03/14 09:31:22;;;;;;;0.00;0.00;;;;;;;7.47;38.94;100810.28;4843139;29;20496;-77
2022/03/14 09:33:48;;;;;;;0.57;0.57;;;;;;;7.44;39.56;100802.69;4859996;29;20026;-77
2022/03/14 09:36:13;;;;;;;0.10;0.10;;;;;;;7.43;39.26;100803.72;4859584;29;20061;-77
2022/03/14 09:38:38;;;;;;;0.00;0.00;;;;;;;7.37;37.90;100816.03;4860107;29;20037;-77
2022/03/14 09:41:04;;;;;;;0.00;0.00;;;;;;;7.26;38.28;100818.53;4859942;29;20037;-77
2022/03/14 09:43:31;;;;;;;1.98;0.63;;;;;;;7.11;37.80;100816.94;4859706;29;20037;-77
2022/03/14 09:46:00;;;;;;;0.10;0.10;;;;;;;7.11;38.81;100821.44;4858762;29;20048;-77
2022/03/14 09:48:26;;;;;;;0.00;0.00;;;;;;;7.13;38.34;100822.88;4842995;29;20493;-77
2022/03/14 09:50:53;;;;;;;0.10;0.10;;;;;;;7.14;38.87;100824.50;4859788;29;20034;-77
2022/03/14 09:53:18;;;;;;;0.70;0.70;;;;;;;7.10;38.21;100820.63;4859325;29;20430;-77
2022/03/14 09:55:46;;;;;;;0.00;0.00;;;;;;;7.03;38.43;100822.47;4859734;29;20037;-77
2022/03/14 09:58:19;;;;;;;0.00;0.00;;;;;;;6.97;39.24;100824.16;4859443;29;20033;-77
2022/03/14 10:00:46;;;;;;;0.00;0.00;;;;;;;6.93;39.62;100824.75;4843053;29;20029;-77
2022/03/14 10:03:13;;;;;;;2.28;0.22;;;;;;;6.89;39.61;100827.03;4842798;29;20078;-77
2022/03/14 10:05:39;;;;;;;0.08;0.08;;;;;;;6.91;39.08;100824.97;4859655;29;20041;-78
2022/03/14 10:08:05;;;;;;;1.50;1.40;;;;;;;6.87;40.54;100819.25;4842702;29;20128;-77
2022/03/14 10:10:31;;;;;;;0.10;0.10;;;;;;;6.86;38.88;100824.75;4859447;29;20125;-76
2022/03/14 10:12:59;;;;;;;0.00;0.00;;;;;;;6.88;39.57;100823.56;4858390;29;20530;-77
2022/03/14 10:15:26;;;;;;;0.00;0.00;;;;;;;6.93;40.26;100822.09;4842561;29;20032;-78
2022/03/14 10:17:55;;;;;;;0.10;0.10;;;;;;;7.00;40.02;100814.94;4859648;29;20049;-77
2022/03/14 10:20:22;;;;;;;3.97;0.90;;;;;;;7.08;39.77;100817.38;4859143;29;20038;-76
2022/03/14 10:22:48;;;;;;;0.00;0.00;;;;;;;7.16;39.58;100817.13;4842768;29;20033;-77
2022/03/14 10:25:19;;;;;;;0.00;0.00;;;;;;;7.22;39.20;100821.59;4859206;29;20416;-78
2022/03/14 10:27:55;;;;;;;0.10;0.10;;;;;;;7.27;38.59;100815.66;4859237;29;20121;-77
2022/03/14 10:30:25;;;;;;;0.00;0.00;;;;;;;7.31;38.98;100814.22;4842283;29;20037;-78
2022/03/14 10:32:56;;;;;;;0.00;0.00;;;;;;;7.30;38.09;100807.25;4842722;29;20414;-77
2022/03/14 10:35:22;;;;;;;0.00;0.00;;;;;;;7.36;38.38;100824.22;4858571;29;20037;-78
2022/03/14 10:37:58;;;;;;;0.22;0.22;;;;;;;7.44;38.56;100821.31;4842401;29;20040;-78
2022/03/14 10:40:36;;;;;;;0.05;0.05;;;;;;;7.49;38.98;100820.69;4858961;29;20029;-76
2022/03/14 10:43:05;;;;;;;0.00;0.00;;;;;;;7.52;38.13;100826.41;4842441;29;20041;-79
2022/03/14 10:45:31;;;;;;;0.00;0.00;;;;;;;7.60;38.39;100808.56;4858568;29;20044;-78
2022/03/14 10:47:58;;;;;;;0.00;0.00;;;;;;;7.69;37.34;100820.63;4844768;29;20046;-77
2022/03/14 10:50:35;;;;;;;0.15;0.15;;;;;;;7.57;36.71;100807.16;4825419;29;20044;-77
2022/03/14 10:53:08;;;;;;;0.10;0.10;;;;;;;7.50;37.74;100815.16;4858943;29;20060;-78
2022/03/14 10:55:39;;;;;;;0.00;0.00;;;;;;;7.50;38.51;100809.03;4858629;29;20034;-77
2022/03/14 10:58:09;;;;;;;0.20;0.20;;;;;;;7.54;38.09;100810.22;4859142;29;20030;-78
2022/03/14 11:01:04;;;;;;;0.00;0.00;;;;;;;7.51;37.56;100811.47;4858594;29;20037;-77
2022/03/14 11:03:31;;;;;;;0.00;0.00;;;;;;;7.41;38.05;100804.97;4857870;29;20057;-77
2022/03/14 11:06:01;;;;;;;0.00;0.00;;;;;;;7.40;36.72;100806.81;4858838;29;20040;-77
2022/03/14 11:08:35;;;;;;;0.03;0.03;;;;;;;7.21;36.34;100811.19;4858546;29;20692;-77
2022/03/14 11:11:09;;;;;;;0.82;0.82;;;;;;;7.19;37.17;100810.59;4857531;29;20081;-77
2022/03/14 11:13:45;;;;;;;1.35;1.23;;;;;;;7.16;37.28;100817.13;4860685;29;20410;-77
2022/03/14 11:16:18;;;;;;;0.00;0.00;;;;;;;7.13;36.97;100814.06;4861157;29;20056;-78
2022/03/14 11:18:45;;;;;;;0.22;0.22;;;;;;;7.11;37.97;100811.63;4862492;29;20049;-78
2022/03/14 11:21:13;;;;;;;0.00;0.00;;;;;;;7.19;37.34;100800.75;4862173;29;20082;-78
2022/03/14 11:23:43;;;;;;;0.28;0.28;;;;;;;7.24;37.60;100800.13;4862369;29;20501;-76
2022/03/14 11:26:10;;;;;;;0.10;0.10;;;;;;;7.25;37.30;100799.09;4862065;29;20033;-78
2022/03/14 11:28:36;;;;;;;0.10;0.10;;;;;;;7.26;36.48;100802.56;4862286;29;20025;-78
2022/03/14 11:31:01;;;;;;;0.00;0.00;;;;;;;7.26;35.88;100795.38;4862209;29;20068;-77
2022/03/14 11:33:30;;;;;;;0.10;0.10;;;;;;;7.26;36.16;100790.06;4861942;29;20065;-77
2022/03/14 11:35:57;;;;;;;0.70;0.35;;;;;;;7.30;36.34;100782.47;4862255;29;20034;-77
2022/03/14 11:38:24;;;;;;;0.10;0.10;;;;;;;7.27;36.81;100783.72;4861685;29;20131;-77
2022/03/14 11:40:51;;;;;;;0.20;0.20;;;;;;;7.28;36.78;100777.38;4862117;29;20040;-78
2022/03/14 11:43:17;;;;;;;0.20;0.20;;;;;;;7.37;36.66;100784.09;4860791;29;20401;-77
2022/03/14 11:45:44;;;;;;;0.00;0.00;;;;;;;7.51;37.05;100776.06;4862110;29;20077;-77
2022/03/14 11:48:10;;;;;;;0.10;0.10;;;;;;;7.66;36.65;100781.88;4860755;29;20124;-77
2022/03/14 11:50:56;;;;;;;0.32;0.32;;;;;;;7.82;36.61;100771.78;4860441;29;20409;-77
2022/03/14 11:53:32;;;;;;;0.00;0.00;;;;;;;7.84;35.88;100775.03;4860388;29;20454;-77
2022/03/14 11:55:58;;;;;;;0.05;0.05;;;;;;;7.80;35.47;100781.81;4862051;29;20116;-77
2022/03/14 11:58:34;;;;;;;0.20;0.20;;;;;;;7.78;35.59;100774.03;4861223;29;20109;-77
2022/03/14 12:01:19;;;;;;;1.35;1.25;;;;;;;7.73;36.76;100768.56;4861688;29;20480;-77
2022/03/14 12:03:56;;;;;;;0.00;0.00;;;;;;;7.75;36.56;100763.00;4861564;29;20033;-77
2022/03/14 12:06:46;;;;;;;0.38;0.38;;;;;;;7.67;35.73;100775.53;4861572;29;20037;-77
2022/03/14 12:09:23;;;;;;;0.00;0.00;;;;;;;7.56;35.29;100768.25;4861537;29;20032;-77
2022/03/14 12:11:49;;;;;;;0.32;0.32;;;;;;;7.52;35.56;100767.03;4861623;29;20041;-77
2022/03/14 12:14:42;;;;;;;0.03;0.03;;;;;;;7.47;35.68;100765.00;4860329;29;20036;-77
2022/03/14 12:17:13;;;;;;;0.00;0.00;;;;;;;7.49;35.97;100773.59;4861235;29;20498;-77
2022/03/14 12:19:55;;;;;;;0.10;0.10;;;;;;;7.50;35.65;100766.44;4861076;29;20753;-76
2022/03/14 12:22:29;;;;;;;1.20;1.20;;;;;;;7.51;35.60;100768.88;4861171;29;20489;-76
2022/03/14 12:24:59;;;;;;;0.15;0.15;;;;;;;7.52;35.84;100769.72;4861115;29;20025;-77
2022/03/14 12:27:31;;;;;;;0.00;0.00;;;;;;;7.53;35.58;100771.31;4844566;29;20120;-76